Terminal Aerodrome Forecast
Issued by NWS Wilmington, OH

Current Version | Previous Version | Graphics & Text | Print | Product List | Glossary On
Versions: 1 2 3 4 5 6 7 8 9 10 11 12 13 14 15 16 17
000
FTUS41 KILN 232300
TAFDAY
TAF
KDAY 232326Z 2400/2424 35006KT P6SM BKN250
     FM240600 11006KT P6SM SCT060 OVC090
     FM241600 14012KT P6SM SCT100 BKN200=

USA.gov is the U.S. government's official web portal to all federal, state and local government web resources and services.